Time;durP1;ratioP1;P1;durP2;ratioP2;P2;SDS_P1;SDS_P2;PMS_P1;PMS_P2;Temp;Humidity;BMP_temperature;BMP_pressure;BME280_temperature;BME280_humidity;BME280_pressure;Samples;Min_cycle;Max_cycle;Signal;HPM_P1;HPM_P2
2022/07/10 00:02:25;;;;;;;6.13;1.75;;;17.30;99.90;;;;;;5019812;28;20226;-77
2022/07/10 00:05:14;;;;;;;3.33;1.50;;;17.40;99.90;;;;;;5007920;28;20706;-79
2022/07/10 00:08:07;;;;;;;2.70;1.50;;;17.40;99.90;;;;;;5019614;28;20325;-78
2022/07/10 00:10:56;;;;;;;1.90;1.67;;;17.50;99.90;;;;;;5007251;28;20225;-77
2022/07/10 00:13:44;;;;;;;3.42;1.88;;;17.40;99.90;;;;;;5017927;28;20225;-78
2022/07/10 00:16:33;;;;;;;3.33;1.60;;;17.40;99.90;;;;;;5021289;28;20580;-78
2022/07/10 00:19:23;;;;;;;2.55;1.90;;;17.30;99.90;;;;;;5020480;28;20269;-77
2022/07/10 00:22:12;;;;;;;2.33;1.73;;;17.30;99.90;;;;;;5018495;28;20295;-79
2022/07/10 00:25:01;;;;;;;2.53;1.60;;;17.30;99.90;;;;;;5018581;28;20716;-78
2022/07/10 00:27:49;;;;;;;3.25;1.75;;;17.20;99.90;;;;;;5019386;28;20241;-78
2022/07/10 00:30:38;;;;;;;2.67;1.95;;;17.10;99.90;;;;;;5017381;28;20221;-76
2022/07/10 00:33:27;;;;;;;3.00;1.70;;;17.20;99.90;;;;;;5004997;28;20227;-78
2022/07/10 00:36:17;;;;;;;3.35;1.85;;;17.10;99.90;;;;;;5006235;28;20249;-78
2022/07/10 00:39:06;;;;;;;1.88;1.70;;;17.10;99.90;;;;;;5026061;28;20229;-77
2022/07/10 00:41:55;;;;;;;2.33;1.60;;;17.00;99.90;;;;;;5039262;28;20497;-77
2022/07/10 00:44:47;;;;;;;5.55;2.00;;;17.00;99.90;;;;;;5023510;28;20225;-78
2022/07/10 00:47:36;;;;;;;3.05;1.80;;;16.90;99.90;;;;;;5015519;28;20233;-77
2022/07/10 00:50:24;;;;;;;2.47;2.00;;;16.80;99.90;;;;;;5004733;28;20231;-78
2022/07/10 00:53:15;;;;;;;4.93;1.85;;;16.80;99.90;;;;;;5008320;28;20595;-78
2022/07/10 00:56:03;;;;;;;4.13;1.80;;;16.80;99.90;;;;;;5002831;28;20236;-79
2022/07/10 00:58:52;;;;;;;3.05;1.98;;;16.80;99.90;;;;;;5016820;28;20276;-78
2022/07/10 01:01:42;;;;;;;3.40;2.00;;;16.80;99.90;;;;;;5004590;28;20233;-78
2022/07/10 01:04:30;;;;;;;4.38;2.25;;;16.60;99.90;;;;;;5018668;28;20330;-79
2022/07/10 01:07:19;;;;;;;4.60;2.30;;;16.60;99.90;;;;;;5020710;28;20755;-80
2022/07/10 01:10:10;;;;;;;3.83;2.10;;;16.60;99.90;;;;;;5019980;28;20225;-79
2022/07/10 01:12:58;;;;;;;2.67;2.00;;;16.60;99.90;;;;;;5003803;28;20221;-79
2022/07/10 01:15:47;;;;;;;5.03;2.15;;;16.50;99.90;;;;;;5003384;28;20241;-80
2022/07/10 01:18:36;;;;;;;4.55;2.10;;;16.50;99.90;;;;;;5004851;28;20230;-79
2022/07/10 01:21:32;;;;;;;3.92;2.30;;;16.50;99.90;;;;;;5022003;28;20226;-79
2022/07/10 01:24:20;;;;;;;3.08;2.15;;;16.60;99.90;;;;;;5018080;28;20225;-79
2022/07/10 01:27:09;;;;;;;2.60;2.35;;;16.60;99.90;;;;;;5016335;28;20696;-79
2022/07/10 01:29:59;;;;;;;2.95;2.40;;;16.70;99.90;;;;;;5017854;28;20218;-78
2022/07/10 01:32:48;;;;;;;5.05;2.40;;;16.70;99.90;;;;;;5017447;28;20234;-81
2022/07/10 01:35:37;;;;;;;3.88;2.30;;;16.70;99.90;;;;;;5015495;28;20292;-78
2022/07/10 01:38:27;;;;;;;4.60;2.78;;;16.70;99.90;;;;;;5005249;28;20236;-80
2022/07/10 01:41:16;;;;;;;5.05;2.63;;;16.60;99.90;;;;;;5025479;28;20236;-80
2022/07/10 01:44:04;;;;;;;3.15;2.42;;;16.60;99.90;;;;;;5031614;28;20232;-81
2022/07/10 01:46:53;;;;;;;4.82;2.30;;;16.60;99.90;;;;;;5011483;28;20224;-80
2022/07/10 01:49:42;;;;;;;3.00;2.20;;;16.50;99.90;;;;;;5015584;28;20237;-79
2022/07/10 01:52:30;;;;;;;2.65;2.15;;;16.60;99.90;;;;;;5016924;28;20232;-78
2022/07/10 01:55:20;;;;;;;4.70;2.45;;;16.50;99.90;;;;;;5006937;28;20236;-77
2022/07/10 01:58:11;;;;;;;3.40;2.53;;;16.40;99.90;;;;;;5016028;28;20870;-75
2022/07/10 02:01:00;;;;;;;3.92;2.55;;;16.30;99.90;;;;;;5015440;28;20558;-76
2022/07/10 02:06:54;;;;;;;3.50;2.72;;;16.40;99.90;;;;;;5022074;28;20260;-76
2022/07/10 02:09:43;;;;;;;3.25;2.53;;;16.40;99.90;;;;;;5022791;28;20222;-78
2022/07/10 02:12:33;;;;;;;4.72;2.25;;;16.50;99.90;;;;;;5020399;28;20224;-76
2022/07/10 02:15:22;;;;;;;3.13;2.30;;;16.60;99.90;;;;;;5016636;28;20236;-76
2022/07/10 02:18:10;;;;;;;3.92;2.40;;;16.60;99.90;;;;;;5007517;28;20225;-76
2022/07/10 02:20:59;;;;;;;3.67;2.40;;;16.50;99.90;;;;;;5021110;28;20222;-77
2022/07/10 02:23:48;;;;;;;2.90;2.22;;;16.50;99.90;;;;;;5018275;28;20225;-76
2022/07/10 02:26:36;;;;;;;5.78;2.88;;;16.60;99.90;;;;;;5001080;28;20217;-77
2022/07/10 02:29:26;;;;;;;4.97;2.15;;;16.50;99.90;;;;;;5017557;28;20222;-77
2022/07/10 02:32:15;;;;;;;3.92;2.63;;;16.60;99.90;;;;;;5016278;28;20265;-78
2022/07/10 02:35:07;;;;;;;4.00;2.50;;;16.40;99.90;;;;;;5006855;28;20213;-78
2022/07/10 02:38:00;;;;;;;4.15;2.47;;;16.50;99.90;;;;;;5009822;28;20218;-76
2022/07/10 02:40:48;;;;;;;3.50;2.35;;;16.40;99.90;;;;;;5016715;28;20716;-75
2022/07/10 02:43:37;;;;;;;4.78;2.50;;;16.40;99.90;;;;;;5015650;28;20221;-76
2022/07/10 02:46:30;;;;;;;5.90;2.38;;;16.40;99.90;;;;;;5015707;28;20229;-77
2022/07/10 02:49:19;;;;;;;6.45;2.50;;;16.50;99.90;;;;;;5015845;28;20702;-76
2022/07/10 02:52:08;;;;;;;5.25;2.45;;;16.40;99.90;;;;;;5017884;28;20671;-76
2022/07/10 02:54:56;;;;;;;4.40;2.55;;;16.40;99.90;;;;;;5000430;28;20733;-76
2022/07/10 02:57:45;;;;;;;6.13;2.65;;;16.50;99.90;;;;;;5018430;28;20209;-75
2022/07/10 03:00:33;;;;;;;4.28;2.40;;;16.40;99.90;;;;;;4992009;28;20943;-74
2022/07/10 03:03:23;;;;;;;4.78;2.30;;;16.40;99.90;;;;;;5003544;28;20218;-76
2022/07/10 03:06:12;;;;;;;6.13;2.28;;;16.50;99.90;;;;;;5020336;28;20848;-77
2022/07/10 03:09:00;;;;;;;3.25;2.40;;;16.50;99.90;;;;;;4999005;28;20226;-76
2022/07/10 03:11:49;;;;;;;4.25;2.45;;;16.60;99.90;;;;;;5013643;28;20217;-75
2022/07/10 03:14:37;;;;;;;5.35;2.67;;;16.60;99.90;;;;;;5018312;28;20228;-74
2022/07/10 03:17:27;;;;;;;3.75;2.83;;;16.60;99.90;;;;;;5022709;28;20692;-76
2022/07/10 03:20:17;;;;;;;7.70;2.70;;;16.60;99.90;;;;;;5018984;28;20218;-77
2022/07/10 03:23:05;;;;;;;3.35;2.30;;;16.50;99.90;;;;;;5006974;28;20584;-76
2022/07/10 03:25:54;;;;;;;3.47;2.28;;;16.40;99.90;;;;;;5008776;28;20325;-77
2022/07/10 03:28:43;;;;;;;3.25;2.10;;;16.40;99.90;;;;;;5030954;28;20248;-77
2022/07/10 03:31:31;;;;;;;5.20;2.80;;;16.50;99.90;;;;;;5035359;28;20236;-76
2022/07/10 03:34:20;;;;;;;3.40;2.40;;;16.50;99.90;;;;;;5027629;28;20572;-76
2022/07/10 03:37:10;;;;;;;5.63;2.30;;;16.70;99.90;;;;;;5022919;28;20217;-76
2022/07/10 03:39:58;;;;;;;4.95;2.53;;;16.60;99.90;;;;;;5023313;28;20232;-75
2022/07/10 03:42:47;;;;;;;4.05;2.58;;;16.50;99.90;;;;;;5020775;28;20287;-75
2022/07/10 03:45:35;;;;;;;3.92;2.45;;;16.50;99.90;;;;;;5025871;28;20226;-76
2022/07/10 03:48:24;;;;;;;5.45;2.17;;;16.60;99.90;;;;;;5023850;28;20700;-76
2022/07/10 03:51:12;;;;;;;6.45;2.63;;;16.70;99.90;;;;;;5017196;28;20261;-78
2022/07/10 03:54:02;;;;;;;4.30;2.53;;;16.70;99.90;;;;;;5017290;28;20296;-76
2022/07/10 04:00:00;;;;;;;3.40;2.40;;;16.90;99.90;;;;;;5009205;28;20213;-77
2022/07/10 04:03:00;;;;;;;5.10;2.45;;;16.90;99.90;;;;;;5017943;28;20241;-77
2022/07/10 04:05:48;;;;;;;4.15;2.10;;;16.90;99.90;;;;;;5016360;28;20252;-77
2022/07/10 04:08:38;;;;;;;3.17;2.10;;;17.00;99.90;;;;;;5022448;28;20230;-75
2022/07/10 04:11:32;;;;;;;8.23;2.67;;;17.20;99.90;;;;;;5020670;28;20586;-75
2022/07/10 04:14:20;;;;;;;4.00;2.13;;;17.40;99.90;;;;;;5020287;28;20245;-75
2022/07/10 04:17:09;;;;;;;2.50;1.98;;;17.40;99.90;;;;;;5001214;28;20225;-74
2022/07/10 04:19:58;;;;;;;2.95;2.03;;;17.40;99.90;;;;;;5015766;28;20554;-74
2022/07/10 04:22:47;;;;;;;4.18;2.00;;;17.40;99.90;;;;;;5016181;28;20233;-74
2022/07/10 04:25:35;;;;;;;2.92;1.98;;;17.50;99.90;;;;;;5020840;28;20225;-74
2022/07/10 04:28:25;;;;;;;4.53;2.58;;;17.40;99.90;;;;;;5018198;28;20234;-75
2022/07/10 04:31:14;;;;;;;7.05;2.20;;;17.30;99.90;;;;;;5007044;28;20249;-75
2022/07/10 04:34:02;;;;;;;5.93;2.42;;;17.40;99.90;;;;;;5009526;28;20416;-74
2022/07/10 04:36:51;;;;;;;3.45;2.38;;;17.40;99.90;;;;;;5005111;28;20293;-73
2022/07/10 04:39:40;;;;;;;4.97;2.47;;;17.50;99.90;;;;;;5001690;28;20652;-73
2022/07/10 04:42:29;;;;;;;3.90;2.50;;;17.40;99.90;;;;;;5019629;28;20222;-73
2022/07/10 04:45:19;;;;;;;4.32;2.33;;;17.40;99.90;;;;;;5017879;28;20222;-76
2022/07/10 04:48:07;;;;;;;6.60;2.40;;;17.50;99.90;;;;;;5018209;28;20221;-75
2022/07/10 04:50:57;;;;;;;5.35;2.30;;;17.30;99.90;;;;;;5005940;28;20262;-75
2022/07/10 04:53:46;;;;;;;3.33;2.03;;;17.30;99.90;;;;;;5019380;28;20355;-78
2022/07/10 04:56:35;;;;;;;3.70;2.05;;;17.30;99.90;;;;;;5021549;28;20238;-77
2022/07/10 04:59:23;;;;;;;2.83;2.33;;;17.40;99.90;;;;;;5016502;28;20222;-76
2022/07/10 05:02:13;;;;;;;2.72;1.73;;;17.50;99.90;;;;;;5017256;28;20700;-77
2022/07/10 05:05:02;;;;;;;6.40;1.90;;;17.40;99.90;;;;;;4992170;28;20354;-76
2022/07/10 05:07:50;;;;;;;3.95;1.73;;;17.50;99.90;;;;;;5003537;28;20686;-77
2022/07/10 05:10:39;;;;;;;4.40;2.20;;;17.60;99.90;;;;;;5016886;28;20313;-77
2022/07/10 05:13:28;;;;;;;3.60;1.70;;;17.60;99.90;;;;;;5007677;28;20236;-77
2022/07/10 05:16:17;;;;;;;5.78;1.90;;;17.70;99.90;;;;;;5003011;28;20229;-76
2022/07/10 05:19:09;;;;;;;3.08;1.75;;;17.80;99.90;;;;;;5007226;28;20300;-79
2022/07/10 05:21:58;;;;;;;5.85;1.90;;;17.90;99.90;;;;;;5014520;28;20314;-74
2022/07/10 05:24:50;;;;;;;5.20;1.70;;;18.00;99.90;;;;;;5007143;28;20663;-74
2022/07/10 05:27:38;;;;;;;4.40;1.77;;;18.10;99.90;;;;;;5013597;28;20225;-74
2022/07/10 05:30:27;;;;;;;2.85;1.67;;;18.10;99.90;;;;;;5006921;28;20216;-75
2022/07/10 05:33:16;;;;;;;3.05;1.90;;;18.20;99.90;;;;;;5014928;28;20226;-74
2022/07/10 05:36:06;;;;;;;4.10;1.70;;;18.20;99.90;;;;;;5014568;28;20225;-75
2022/07/10 05:38:55;;;;;;;4.95;1.90;;;18.10;99.90;;;;;;5001500;28;20221;-73
2022/07/10 05:41:44;;;;;;;3.60;1.60;;;18.20;99.90;;;;;;5015527;28;20241;-71
2022/07/10 05:44:33;;;;;;;3.67;1.60;;;18.20;99.90;;;;;;5014935;28;20309;-73
2022/07/10 05:47:21;;;;;;;2.25;1.63;;;18.30;99.90;;;;;;5015068;28;20222;-73
2022/07/10 05:50:10;;;;;;;1.85;1.70;;;18.30;99.90;;;;;;5013320;28;20225;-73
2022/07/10 05:53:00;;;;;;;2.67;1.50;;;18.20;99.90;;;;;;5014175;28;20230;-74
2022/07/10 05:55:49;;;;;;;2.83;1.40;;;18.30;99.90;;;;;;5013860;28;20221;-74
2022/07/10 05:58:37;;;;;;;4.18;1.70;;;18.30;99.90;;;;;;5017664;28;21358;-73
2022/07/10 06:01:27;;;;;;;5.20;2.03;;;18.40;99.90;;;;;;5000670;28;20225;-73
2022/07/10 06:04:15;;;;;;;2.33;1.48;;;18.40;99.90;;;;;;5014971;28;20247;-73
2022/07/10 06:07:04;;;;;;;3.95;1.67;;;18.30;99.90;;;;;;4998319;28;20605;-73
2022/07/10 06:09:55;;;;;;;4.18;1.77;;;18.50;99.90;;;;;;5013758;28;20222;-73
2022/07/10 06:12:44;;;;;;;7.45;2.05;;;18.50;99.90;;;;;;5015035;28;20278;-73
2022/07/10 06:15:32;;;;;;;4.57;1.63;;;18.50;99.90;;;;;;5014252;28;20213;-73
2022/07/10 06:18:21;;;;;;;2.35;1.60;;;18.60;99.90;;;;;;5015344;28;20218;-75
2022/07/10 06:21:10;;;;;;;6.18;2.17;;;18.50;99.90;;;;;;5008934;28;20237;-76
2022/07/10 06:23:58;;;;;;;3.28;1.70;;;18.60;99.90;;;;;;5018385;28;20226;-75
2022/07/10 06:26:48;;;;;;;5.80;1.80;;;18.60;99.90;;;;;;5021993;28;20325;-75
2022/07/10 06:29:37;;;;;;;3.83;1.80;;;18.70;99.90;;;;;;5014964;28;20585;-76
2022/07/10 06:32:30;;;;;;;3.60;1.58;;;18.80;99.90;;;;;;5013855;28;20247;-75
2022/07/10 06:35:19;;;;;;;4.45;2.10;;;18.70;99.90;;;;;;5010625;28;20214;-78
2022/07/10 06:38:07;;;;;;;3.65;2.00;;;18.70;99.90;;;;;;5015407;28;20225;-78
2022/07/10 06:40:56;;;;;;;4.22;2.08;;;18.60;99.90;;;;;;5013422;28;20225;-78
2022/07/10 06:43:46;;;;;;;5.82;2.47;;;;;;;;;;5018295;28;20218;-76
2022/07/10 06:46:38;;;;;;;4.32;2.35;;;18.80;99.90;;;;;;5014447;28;20253;-73
2022/07/10 06:49:26;;;;;;;4.07;2.20;;;18.80;99.90;;;;;;5020517;28;20233;-76
2022/07/10 06:52:15;;;;;;;4.82;2.20;;;18.90;99.90;;;;;;5016040;28;20225;-76
2022/07/10 06:55:05;;;;;;;5.78;2.03;;;19.00;99.90;;;;;;5013006;28;20363;-73
2022/07/10 06:57:54;;;;;;;4.60;2.08;;;19.00;99.90;;;;;;5021394;28;20221;-74
2022/07/10 07:00:44;;;;;;;4.28;2.30;;;18.90;99.90;;;;;;5007753;28;20220;-79
2022/07/10 07:03:33;;;;;;;3.67;2.22;;;19.10;99.90;;;;;;5018749;28;20230;-79
2022/07/10 07:06:21;;;;;;;4.85;1.50;;;19.10;99.90;;;;;;5023386;28;20222;-70
2022/07/10 07:09:10;;;;;;;7.65;2.10;;;19.10;99.90;;;;;;5030033;28;20237;-73
2022/07/10 07:11:58;;;;;;;3.92;1.70;;;19.30;99.90;;;;;;5005261;28;22006;-69
2022/07/10 07:14:47;;;;;;;8.68;1.65;;;19.60;99.90;;;;;;5013176;28;20221;-72
2022/07/10 07:18:11;;;;;;;3.72;1.98;;;19.70;99.90;;;;;;5002888;28;20246;-75
2022/07/10 07:24:10;;;;;;;3.38;1.73;;;20.50;99.90;;;;;;5002777;28;20224;-75
2022/07/10 07:26:58;;;;;;;4.13;1.80;;;20.90;99.90;;;;;;5021068;28;20226;-75
2022/07/10 07:29:47;;;;;;;4.43;1.77;;;21.10;99.90;;;;;;5021196;28;20238;-76
2022/07/10 07:32:39;;;;;;;5.30;2.10;;;21.00;99.90;;;;;;5016064;28;21583;-77
2022/07/10 07:35:32;;;;;;;4.43;1.60;;;20.90;99.90;;;;;;5018065;28;20870;-76
2022/07/10 07:38:21;;;;;;;2.47;1.33;;;21.60;99.90;;;;;;5006564;28;20245;-76
2022/07/10 07:41:10;;;;;;;4.03;1.60;;;21.50;99.90;;;;;;5014684;28;20316;-76
2022/07/10 07:43:59;;;;;;;3.85;1.40;;;21.70;99.90;;;;;;5012984;28;20230;-76
2022/07/10 07:46:48;;;;;;;3.92;1.50;;;21.70;99.90;;;;;;5018412;28;20258;-75
2022/07/10 07:49:36;;;;;;;6.57;1.50;;;21.50;99.90;;;;;;5014020;28;20251;-75
2022/07/10 07:52:31;;;;;;;4.13;1.40;;;22.00;99.90;;;;;;5015173;28;20225;-76
2022/07/10 07:55:20;;;;;;;1.85;1.10;;;22.50;99.90;;;;;;5017633;28;20214;-74
2022/07/10 07:58:09;;;;;;;3.80;1.27;;;22.80;99.90;;;;;;5016764;28;20226;-72
2022/07/10 08:00:58;;;;;;;4.20;1.40;;;22.90;99.70;;;;;;5014176;28;20228;-77
2022/07/10 08:03:47;;;;;;;3.08;1.20;;;22.90;99.90;;;;;;5015513;28;20802;-72
2022/07/10 08:07:01;;;;;;;4.75;1.35;;;22.40;99.90;;;;;;5013784;28;20859;-74
2022/07/10 08:09:51;;;;;;;2.65;1.20;;;22.10;99.90;;;;;;5002432;28;20539;-74
2022/07/10 08:12:40;;;;;;;3.33;1.30;;;21.90;99.90;;;;;;5006182;28;20544;-78
2022/07/10 08:15:30;;;;;;;5.60;1.33;;;21.60;99.90;;;;;;5012929;28;22034;-78
2022/07/10 08:18:18;;;;;;;5.18;1.60;;;21.30;99.90;;;;;;5013935;28;20225;-73
2022/07/10 08:21:07;;;;;;;2.78;1.58;;;21.20;99.90;;;;;;5003761;28;20378;-72
2022/07/10 08:23:55;;;;;;;4.72;1.35;;;21.10;99.90;;;;;;5010226;28;20838;-72
2022/07/10 08:26:45;;;;;;;4.70;1.40;;;21.10;99.90;;;;;;5015523;28;20218;-73
2022/07/10 08:29:34;;;;;;;6.13;1.60;;;21.20;99.90;;;;;;5013673;28;20229;-72
2022/07/10 08:32:23;;;;;;;4.20;1.50;;;21.10;99.90;;;;;;4999899;28;20221;-72
2022/07/10 08:35:13;;;;;;;3.85;1.30;;;21.10;99.90;;;;;;4999531;28;20734;-72
2022/07/10 08:38:02;;;;;;;3.47;1.17;;;21.20;99.90;;;;;;5010858;28;20239;-74
2022/07/10 08:40:50;;;;;;;6.03;1.55;;;21.00;99.90;;;;;;5014796;28;20233;-72
2022/07/10 08:43:40;;;;;;;3.35;1.40;;;21.40;99.90;;;;;;5012242;28;20217;-75
2022/07/10 08:46:32;;;;;;;3.90;1.52;;;22.80;99.90;;;;;;5014309;28;20256;-73
2022/07/10 08:49:27;;;;;;;4.35;1.30;;;24.50;98.10;;;;;;5013058;28;20593;-73
2022/07/10 08:52:26;;;;;;;3.80;1.33;;;24.70;93.10;;;;;;5007208;28;20222;-75
2022/07/10 08:55:15;;;;;;;5.13;1.30;;;23.60;92.70;;;;;;5010177;28;20221;-76
2022/07/10 08:58:05;;;;;;;6.10;1.60;;;22.80;96.10;;;;;;5003928;28;20645;-73
2022/07/10 09:00:55;;;;;;;5.25;1.55;;;22.30;97.10;;;;;;5008744;28;20694;-75
2022/07/10 09:03:49;;;;;;;3.25;1.27;;;22.30;99.90;;;;;;4995962;28;20225;-74
2022/07/10 09:06:37;;;;;;;3.20;1.00;;;22.30;96.40;;;;;;5000101;28;20248;-78
2022/07/10 09:09:30;;;;;;;4.18;1.08;;;22.60;95.80;;;;;;5010796;28;20240;-73
2022/07/10 09:12:18;;;;;;;6.53;1.40;;;23.90;92.40;;;;;;5002577;28;20221;-70
2022/07/10 09:15:21;;;;;;;3.30;1.23;;;25.40;90.10;;;;;;5020316;28;20259;-78
2022/07/10 09:18:19;;;;;;;4.55;1.60;;;26.80;82.20;;;;;;5016112;28;20564;-74
2022/07/10 09:21:12;;;;;;;3.75;1.52;;;27.00;75.60;;;;;;5014258;28;20222;-76
2022/07/10 09:24:11;;;;;;;3.67;1.70;;;26.70;71.10;;;;;;5002514;28;20883;-75
2022/07/10 09:27:05;;;;;;;4.38;1.80;;;25.20;78.10;;;;;;5015505;28;20218;-79
2022/07/10 09:29:59;;;;;;;3.13;1.70;;;24.60;82.00;;;;;;5001404;28;20644;-76
2022/07/10 09:32:48;;;;;;;3.05;2.00;;;24.10;82.60;;;;;;5005103;28;20213;-76
2022/07/10 09:38:55;;;;;;;3.88;2.20;;;23.00;85.10;;;;;;5018629;28;20331;-75
2022/07/10 09:41:43;;;;;;;2.60;1.52;;;24.20;87.10;;;;;;5018246;28;20248;-74
2022/07/10 09:44:32;;;;;;;1.80;1.10;;;26.90;78.50;;;;;;5017827;28;20233;-75
2022/07/10 09:47:23;;;;;;;4.05;1.20;;;28.80;65.40;;;;;;5016187;28;20226;-76
2022/07/10 09:50:23;;;;;;;2.17;1.05;;;28.90;59.90;;;;;;5008222;28;20688;-76
2022/07/10 09:53:14;;;;;;;3.60;1.67;;;27.40;64.00;;;;;;5020715;28;20217;-77
2022/07/10 09:56:04;;;;;;;3.10;1.50;;;26.00;70.80;;;;;;5020027;28;20224;-76
2022/07/10 09:58:56;;;;;;;1.80;1.20;;;24.60;75.40;;;;;;5020471;28;20221;-75
2022/07/10 10:01:48;;;;;;;4.78;1.23;;;24.00;80.70;;;;;;5020401;28;20375;-76
2022/07/10 10:04:38;;;;;;;4.78;1.23;;;23.40;81.50;;;;;;5015110;28;20266;-76
2022/07/10 10:07:28;;;;;;;2.25;0.80;;;25.30;79.70;;;;;;5008987;28;20589;-76
2022/07/10 10:10:24;;;;;;;2.80;1.02;;;29.40;64.50;;;;;;5017767;28;20230;-78
2022/07/10 10:13:16;;;;;;;4.50;1.10;;;31.60;57.50;;;;;;5022494;28;20227;-77
2022/07/10 10:16:07;;;;;;;3.92;1.10;;;33.50;52.70;;;;;;5019182;28;20220;-77
2022/07/10 10:22:04;;;;;;;1.65;1.00;;;28.70;56.70;;;;;;5008930;28;20229;-76
2022/07/10 10:24:55;;;;;;;3.50;0.95;;;26.50;62.30;;;;;;5018377;28;20710;-76
2022/07/10 10:27:46;;;;;;;3.75;1.00;;;25.30;65.40;;;;;;5019453;28;20588;-76
2022/07/10 10:30:39;;;;;;;1.35;0.80;;;24.20;67.60;;;;;;5022549;28;20237;-75
2022/07/10 10:33:48;;;;;;;1.55;1.00;;;23.40;70.30;;;;;;5025935;28;20672;-76
2022/07/10 10:36:47;;;;;;;1.70;0.90;;;23.10;72.50;;;;;;5035056;28;20316;-75
2022/07/10 10:39:54;;;;;;;2.42;0.95;;;22.70;74.70;;;;;;5023323;28;20229;-75
2022/07/10 10:42:48;;;;;;;1.88;0.70;;;24.40;72.70;;;;;;5019894;28;20312;-75
2022/07/10 10:45:37;;;;;;;0.98;0.60;;;26.50;66.60;;;;;;4996445;28;20340;-74
2022/07/10 10:48:25;;;;;;;5.35;0.75;;;30.00;58.00;;;;;;5005588;28;20327;-76
2022/07/10 10:51:57;;;;;;;2.13;0.82;;;31.30;54.80;;;;;;5029497;28;20247;-77
2022/07/10 10:55:08;;;;;;;2.55;0.80;;;34.30;49.70;;;;;;5016607;28;21087;-76
2022/07/10 10:58:14;;;;;;;3.65;0.90;;;35.90;47.60;;;;;;5021095;28;20213;-76
2022/07/10 11:01:05;;;;;;;2.55;0.80;;;35.90;46.60;;;;;;5009010;28;20217;-76
2022/07/10 11:04:19;;;;;;;5.70;1.30;;;37.40;45.40;;;;;;5021790;28;20225;-76
2022/07/10 11:07:08;;;;;;;3.53;0.90;;;38.00;43.70;;;;;;5025590;28;20735;-76
2022/07/10 11:10:26;;;;;;;1.92;1.10;;;36.30;44.40;;;;;;5022079;28;20217;-74
2022/07/10 11:13:17;;;;;;;1.95;0.90;;;34.10;48.50;;;;;;5020684;28;20307;-76
2022/07/10 11:16:13;;;;;;;2.92;1.05;;;33.70;47.80;;;;;;5022930;28;20244;-74
2022/07/10 11:19:03;;;;;;;1.42;0.80;;;34.50;47.40;;;;;;5024210;28;20351;-76
2022/07/10 11:22:19;;;;;;;4.25;1.00;;;31.80;50.20;;;;;;5022839;28;20232;-76
2022/07/10 11:25:25;;;;;;;3.80;1.10;;;29.20;54.90;;;;;;5017678;28;20668;-76
2022/07/10 11:28:14;;;;;;;2.67;1.17;;;28.50;54.70;;;;;;5022085;28;20221;-76
2022/07/10 11:31:04;;;;;;;4.07;1.17;;;28.60;55.40;;;;;;5011298;28;20221;-76
2022/07/10 11:33:54;;;;;;;2.33;0.98;;;30.20;54.30;;;;;;5016212;28;20264;-76
2022/07/10 11:36:42;;;;;;;3.03;0.90;;;31.40;53.50;;;;;;5016040;28;20232;-75
2022/07/10 11:39:33;;;;;;;2.15;1.00;;;34.30;50.80;;;;;;5017555;28;20221;-76
2022/07/10 11:42:21;;;;;;;2.75;0.88;;;35.10;47.80;;;;;;5024433;28;20263;-76
2022/07/10 11:45:26;;;;;;;1.70;1.20;;;36.10;45.00;;;;;;5020224;28;20237;-79
2022/07/10 11:48:20;;;;;;;2.45;1.33;;;34.80;45.70;;;;;;5022689;28;20227;-77
2022/07/10 11:51:17;;;;;;;1.98;1.10;;;35.30;46.80;;;;;;5019893;28;20541;-76
2022/07/10 11:54:10;;;;;;;3.05;1.15;;;35.70;46.90;;;;;;5008495;28;20696;-77
2022/07/10 11:57:08;;;;;;;2.60;1.10;;;35.90;45.70;;;;;;5014773;28;20222;-76
2022/07/10 11:59:57;;;;;;;4.28;1.00;;;33.70;49.20;;;;;;5021517;28;20221;-76
2022/07/10 12:02:45;;;;;;;1.85;1.05;;;34.90;47.90;;;;;;5021971;28;20214;-76
2022/07/10 12:05:37;;;;;;;1.67;0.90;;;36.00;45.90;;;;;;5024168;28;20225;-76
2022/07/10 12:08:26;;;;;;;2.45;0.90;;;36.90;44.30;;;;;;5019639;28;20240;-76
2022/07/10 12:11:18;;;;;;;2.05;0.75;;;37.50;41.50;;;;;;5017784;28;20382;-77
2022/07/10 12:14:14;;;;;;;1.85;0.55;;;36.10;40.80;;;;;;5005494;28;20341;-75
2022/07/10 12:17:11;;;;;;;1.77;0.88;;;33.10;43.30;;;;;;5004064;28;20704;-77
2022/07/10 12:20:01;;;;;;;2.42;0.60;;;32.30;45.20;;;;;;5010050;28;20678;-76
2022/07/10 12:22:53;;;;;;;1.77;0.80;;;34.00;44.40;;;;;;5006899;28;20213;-76
2022/07/10 12:25:43;;;;;;;2.10;0.98;;;33.90;43.50;;;;;;5019474;28;20687;-76
2022/07/10 12:28:31;;;;;;;2.28;0.95;;;34.40;43.30;;;;;;5020242;28;20292;-76
2022/07/10 12:31:24;;;;;;;1.55;0.70;;;35.20;42.60;;;;;;5004021;28;20213;-77
2022/07/10 12:34:13;;;;;;;4.22;1.15;;;35.50;43.40;;;;;;5019215;28;20228;-77
2022/07/10 12:37:09;;;;;;;3.30;0.80;;;35.80;42.60;;;;;;5021905;28;20225;-77
2022/07/10 12:40:00;;;;;;;2.00;0.80;;;35.60;42.30;;;;;;5004345;28;20236;-76
2022/07/10 12:42:48;;;;;;;1.73;0.88;;;35.20;43.50;;;;;;5017372;28;20231;-76
2022/07/10 12:45:38;;;;;;;1.75;0.85;;;35.40;44.20;;;;;;5019533;28;20225;-76
2022/07/10 12:48:27;;;;;;;3.38;1.10;;;35.50;44.90;;;;;;5021188;28;20240;-75
2022/07/10 12:51:23;;;;;;;3.40;1.38;;;33.00;46.00;;;;;;5021512;28;20320;-76
2022/07/10 12:54:34;;;;;;;1.48;1.00;;;29.70;50.30;;;;;;5021549;28;20568;-74
2022/07/10 12:57:24;;;;;;;5.57;1.20;;;27.90;55.10;;;;;;5018176;28;20232;-72
2022/07/10 13:00:18;;;;;;;3.30;1.30;;;26.70;63.80;;;;;;5008402;28;20225;-72
2022/07/10 13:03:08;;;;;;;3.33;1.15;;;25.80;84.00;;;;;;5021362;28;20220;-78
2022/07/10 13:05:57;;;;;;;2.65;1.23;;;24.80;94.30;;;;;;5017448;28;20225;-78
2022/07/10 13:08:46;;;;;;;2.33;1.00;;;24.30;99.90;;;;;;5013352;28;20225;-72
2022/07/10 13:11:36;;;;;;;2.63;1.20;;;24.10;99.90;;;;;;4996798;28;20647;-76
2022/07/10 13:14:26;;;;;;;2.53;1.30;;;24.10;94.40;;;;;;4999105;28;20229;-72
2022/07/10 13:17:15;;;;;;;2.33;1.10;;;24.20;99.90;;;;;;5014800;28;20371;-72
2022/07/10 13:20:04;;;;;;;1.33;1.15;;;24.60;99.60;;;;;;5022086;28;21923;-71
2022/07/10 13:22:53;;;;;;;3.28;1.35;;;24.70;99.90;;;;;;5014746;28;20542;-75
2022/07/10 13:25:42;;;;;;;3.72;1.27;;;24.80;96.70;;;;;;5012520;28;20226;-75
2022/07/10 13:28:31;;;;;;;5.60;1.30;;;24.80;94.90;;;;;;5012935;28;20272;-72
2022/07/10 13:31:21;;;;;;;3.38;1.27;;;24.80;99.90;;;;;;5001227;28;20600;-73
2022/07/10 13:34:10;;;;;;;3.42;1.25;;;24.30;92.70;;;;;;5014278;28;20787;-72
2022/07/10 13:36:59;;;;;;;4.80;1.58;;;24.10;92.30;;;;;;5015640;28;20229;-74
2022/07/10 13:39:47;;;;;;;3.45;1.52;;;23.20;90.50;;;;;;5024360;28;20264;-74
2022/07/10 13:42:36;;;;;;;4.10;1.50;;;22.50;97.90;;;;;;5003751;28;20238;-77
2022/07/10 13:45:29;;;;;;;9.55;2.08;;;21.60;99.90;;;;;;5015332;28;20215;-77
2022/07/10 13:48:19;;;;;;;6.78;2.17;;;20.90;99.90;;;;;;5016890;28;20692;-75
2022/07/10 13:51:08;;;;;;;5.97;1.80;;;20.00;99.90;;;;;;5013691;28;20221;-74
2022/07/10 13:53:56;;;;;;;10.07;3.13;;;19.70;99.90;;;;;;5013465;28;20225;-77
2022/07/10 13:56:45;;;;;;;4.78;1.60;;;19.80;99.90;;;;;;5012776;28;20221;-74
2022/07/10 13:59:34;;;;;;;3.78;1.60;;;19.50;99.90;;;;;;5013989;28;20244;-75
2022/07/10 14:02:23;;;;;;;5.93;2.17;;;19.40;99.90;;;;;;4998949;28;20686;-75
2022/07/10 14:05:16;;;;;;;1.70;1.50;;;19.60;99.90;;;;;;5010468;28;20222;-73
2022/07/10 14:08:05;;;;;;;3.63;1.70;;;19.80;99.90;;;;;;5012443;28;20263;-77
2022/07/10 14:10:54;;;;;;;3.30;1.60;;;19.90;99.90;;;;;;5012064;28;20316;-84
2022/07/10 14:13:42;;;;;;;7.10;2.08;;;20.00;99.90;;;;;;5018617;28;20287;-80
2022/07/10 14:16:31;;;;;;;5.43;1.58;;;20.20;99.90;;;;;;5004111;28;20336;-77
2022/07/10 14:19:20;;;;;;;4.13;1.98;;;20.20;99.90;;;;;;5014147;28;20229;-74
2022/07/10 14:22:10;;;;;;;3.05;1.60;;;20.30;99.90;;;;;;5016782;28;20228;-73
2022/07/10 14:25:00;;;;;;;3.92;1.45;;;20.20;99.90;;;;;;5012902;28;20687;-73
2022/07/10 14:27:49;;;;;;;1.45;1.20;;;20.10;99.90;;;;;;5014023;28;20320;-73
2022/07/10 14:30:37;;;;;;;2.35;1.02;;;20.20;99.90;;;;;;5013213;28;20270;-72
2022/07/10 14:33:26;;;;;;;3.00;1.20;;;20.10;99.90;;;;;;5013186;28;20230;-73
2022/07/10 14:36:15;;;;;;;3.28;1.33;;;20.00;99.90;;;;;;5006947;28;20237;-76
2022/07/10 14:39:08;;;;;;;2.15;1.00;;;20.00;99.90;;;;;;5000760;28;20222;-76
2022/07/10 14:41:57;;;;;;;2.00;1.02;;;19.80;99.90;;;;;;5020654;28;20225;-75
2022/07/10 14:44:45;;;;;;;2.22;1.15;;;19.60;99.90;;;;;;5015476;28;20236;-75
2022/07/10 14:47:34;;;;;;;1.95;0.98;;;19.50;99.90;;;;;;5013165;28;20253;-73
2022/07/10 14:50:23;;;;;;;5.40;1.00;;;19.50;99.90;;;;;;5013106;28;20246;-74
2022/07/10 14:53:12;;;;;;;1.80;0.70;;;19.50;99.90;;;;;;5009219;28;20225;-73
2022/07/10 14:56:02;;;;;;;1.77;0.80;;;19.50;99.90;;;;;;5007607;28;20229;-76
2022/07/10 14:58:50;;;;;;;0.93;0.75;;;19.60;99.90;;;;;;5014733;28;20707;-74
2022/07/10 15:01:59;;;;;;;1.30;0.80;;;19.80;99.90;;;;;;4999552;28;20218;-74
2022/07/10 15:04:48;;;;;;;2.65;0.85;;;19.80;99.90;;;;;;5003788;28;20226;-75
2022/07/10 15:07:36;;;;;;;3.00;1.17;;;19.80;99.90;;;;;;5013509;28;20684;-76